Time;durP1;ratioP1;P1;durP2;ratioP2;P2;SDS_P1;SDS_P2;PMS_P1;PMS_P2;Temp;Humidity;BMP_temperature;BMP_pressure;BME280_temperature;BME280_humidity;BME280_pressure;Samples;Min_cycle;Max_cycle;Signal;HPM_P1;HPM_P2
2020/12/17 00:02:19;;;;;;;14.77;13.57;;;1.10;77.70;;;;;;4994830;29;20447;-81
2020/12/17 00:04:50;;;;;;;14.15;13.15;;;1.10;77.40;;;;;;4990214;29;20527;-81
2020/12/17 00:07:22;;;;;;;14.02;12.77;;;1.10;77.80;;;;;;5002400;29;20107;-81
2020/12/17 00:09:53;;;;;;;13.57;12.55;;;1.10;77.60;;;;;;4993958;29;20124;-80
2020/12/17 00:12:25;;;;;;;14.13;12.98;;;1.10;77.40;;;;;;4995637;29;20043;-81
2020/12/17 00:14:56;;;;;;;14.07;12.85;;;1.20;77.20;;;;;;5006118;29;20054;-82
2020/12/17 00:17:28;;;;;;;13.68;12.65;;;1.20;77.10;;;;;;4990337;29;20062;-81
2020/12/17 00:19:59;;;;;;;13.40;12.40;;;1.20;76.90;;;;;;4988000;29;20135;-81
2020/12/17 00:22:36;;;;;;;13.57;12.57;;;1.20;77.20;;;;;;5002854;29;20038;-81
2020/12/17 00:25:09;;;;;;;12.80;11.90;;;1.20;78.20;;;;;;4988716;29;20058;-82
2020/12/17 00:27:40;;;;;;;13.10;12.20;;;1.20;78.70;;;;;;4991479;29;20545;-80
2020/12/17 00:30:14;;;;;;;13.40;12.40;;;1.20;78.60;;;;;;4992341;29;20062;-80
2020/12/17 00:32:46;;;;;;;13.68;12.68;;;1.20;78.30;;;;;;4995475;29;20054;-81
2020/12/17 00:35:18;;;;;;;13.65;12.65;;;1.10;78.20;;;;;;4994047;29;20133;-81
2020/12/17 00:37:49;;;;;;;13.85;12.85;;;1.10;78.30;;;;;;4994717;29;20520;-79
2020/12/17 00:40:24;;;;;;;14.10;13.10;;;1.10;78.20;;;;;;4990578;29;20073;-80
2020/12/17 00:42:56;;;;;;;14.10;13.00;;;1.10;77.50;;;;;;4991485;29;20103;-81
2020/12/17 00:45:27;;;;;;;13.93;12.82;;;1.00;77.00;;;;;;5006809;29;20475;-80
2020/12/17 00:47:59;;;;;;;13.82;12.80;;;0.90;77.40;;;;;;4991047;29;20513;-80
2020/12/17 00:50:30;;;;;;;13.70;12.60;;;0.90;78.40;;;;;;4990937;29;20589;-80
2020/12/17 00:53:02;;;;;;;13.70;12.70;;;0.90;79.20;;;;;;4990675;29;20050;-80
2020/12/17 00:55:33;;;;;;;13.57;12.57;;;0.90;79.00;;;;;;4988887;29;20065;-80
2020/12/17 00:58:04;;;;;;;13.38;12.48;;;0.90;78.00;;;;;;4988481;29;20074;-80
2020/12/17 01:00:36;;;;;;;13.55;12.55;;;0.80;78.40;;;;;;4988047;29;20065;-81
2020/12/17 01:03:07;;;;;;;13.38;12.38;;;0.80;78.50;;;;;;4997193;29;20046;-81
2020/12/17 01:05:39;;;;;;;13.57;12.43;;;0.80;78.40;;;;;;4993685;29;20455;-81
2020/12/17 01:08:10;;;;;;;13.88;12.75;;;0.90;78.50;;;;;;4988272;29;20107;-81
2020/12/17 01:10:42;;;;;;;13.50;12.50;;;0.90;79.10;;;;;;4981581;29;21798;-81
2020/12/17 01:13:14;;;;;;;13.50;12.50;;;0.90;80.50;;;;;;5005982;29;20539;-81
2020/12/17 01:15:46;;;;;;;13.45;12.45;;;0.90;79.70;;;;;;4987427;29;20394;-80
2020/12/17 01:18:17;;;;;;;13.32;12.43;;;1.00;79.40;;;;;;4990357;29;20058;-80
2020/12/17 01:20:48;;;;;;;13.70;12.70;;;1.00;78.80;;;;;;5005066;29;20078;-81
2020/12/17 01:23:21;;;;;;;13.32;12.32;;;1.00;78.50;;;;;;4989947;29;20052;-81
2020/12/17 01:25:52;;;;;;;13.35;12.35;;;1.00;77.60;;;;;;4987721;29;20050;-81
2020/12/17 01:28:24;;;;;;;13.27;12.27;;;0.70;78.30;;;;;;4990492;29;20079;-81
2020/12/17 01:30:56;;;;;;;13.27;12.20;;;0.60;78.90;;;;;;4987151;29;20051;-81
2020/12/17 01:33:27;;;;;;;14.23;13.13;;;0.60;78.90;;;;;;5003700;29;20054;-81
2020/12/17 01:36:06;;;;;;;13.45;12.45;;;0.70;78.40;;;;;;4989687;29;20050;-81
2020/12/17 01:38:40;;;;;;;13.40;12.40;;;0.80;77.80;;;;;;4988330;29;20077;-81
2020/12/17 01:41:13;;;;;;;13.65;12.65;;;0.70;80.20;;;;;;4989742;29;20074;-82
2020/12/17 01:43:46;;;;;;;12.80;11.90;;;0.80;80.30;;;;;;4990324;29;20050;-82
2020/12/17 01:46:17;;;;;;;13.10;12.20;;;0.80;80.70;;;;;;4991078;29;20042;-82
2020/12/17 01:48:49;;;;;;;13.18;12.18;;;0.80;79.50;;;;;;4988993;29;20046;-81
2020/12/17 01:51:20;;;;;;;13.05;12.13;;;0.80;78.90;;;;;;4990929;29;20564;-82
2020/12/17 01:53:54;;;;;;;13.35;12.35;;;0.80;79.20;;;;;;4988200;29;20119;-79
2020/12/17 01:56:27;;;;;;;13.57;12.48;;;0.80;78.90;;;;;;4989926;29;20395;-79
2020/12/17 01:59:21;;;;;;;13.63;12.63;;;0.90;78.50;;;;;;4986124;29;20043;-79
2020/12/17 02:01:54;;;;;;;12.70;11.80;;;0.90;78.70;;;;;;4986802;29;20050;-80
2020/12/17 02:04:25;;;;;;;13.10;12.20;;;0.90;81.20;;;;;;4992146;29;20054;-80
2020/12/17 02:06:57;;;;;;;13.07;12.18;;;0.90;79.60;;;;;;4992671;29;20497;-80
2020/12/17 02:09:28;;;;;;;12.90;12.00;;;0.90;80.70;;;;;;5005116;29;20651;-80
2020/12/17 02:12:00;;;;;;;13.85;12.75;;;1.00;82.00;;;;;;4991169;29;20520;-80
2020/12/17 02:14:32;;;;;;;13.57;12.57;;;1.00;82.10;;;;;;4993888;29;20049;-80
2020/12/17 02:17:03;;;;;;;13.52;12.52;;;1.10;80.50;;;;;;4992362;29;20057;-79
2020/12/17 02:19:35;;;;;;;13.30;12.35;;;1.00;78.40;;;;;;4992729;29;20091;-79
2020/12/17 02:22:06;;;;;;;14.05;13.05;;;0.90;77.30;;;;;;4990695;29;20138;-79
2020/12/17 02:24:38;;;;;;;13.40;12.40;;;0.90;77.70;;;;;;4992199;29;20099;-79
2020/12/17 02:27:09;;;;;;;13.43;12.40;;;0.90;78.10;;;;;;5005952;29;20050;-80
2020/12/17 02:29:41;;;;;;;13.20;12.30;;;0.90;78.00;;;;;;4993783;29;20042;-81
2020/12/17 02:32:12;;;;;;;12.82;11.93;;;0.90;78.90;;;;;;4997808;29;20050;-81
2020/12/17 02:34:44;;;;;;;13.48;12.57;;;0.90;79.60;;;;;;4987359;29;20114;-81
2020/12/17 02:37:15;;;;;;;13.43;12.43;;;0.90;79.10;;;;;;4995471;29;20115;-82
2020/12/17 02:39:47;;;;;;;13.80;12.80;;;0.90;78.70;;;;;;4993493;29;20039;-82
2020/12/17 02:42:19;;;;;;;13.18;12.27;;;0.90;78.30;;;;;;4994088;29;20053;-82
2020/12/17 02:44:50;;;;;;;13.10;12.10;;;0.90;78.40;;;;;;4994350;29;20050;-82
2020/12/17 02:47:23;;;;;;;13.88;12.88;;;0.90;80.20;;;;;;4994749;29;20095;-81
2020/12/17 02:49:54;;;;;;;13.30;12.30;;;0.90;78.70;;;;;;4996231;29;20063;-82
2020/12/17 02:52:25;;;;;;;13.48;12.48;;;0.90;79.00;;;;;;4992624;29;20675;-81
2020/12/17 02:54:57;;;;;;;13.45;12.45;;;0.90;78.30;;;;;;4993446;29;20046;-80
2020/12/17 02:57:28;;;;;;;13.32;12.32;;;0.90;78.40;;;;;;4995968;29;20152;-80
2020/12/17 03:00:01;;;;;;;12.95;12.05;;;0.90;78.10;;;;;;4988695;29;20050;-80
2020/12/17 03:02:32;;;;;;;13.38;12.38;;;0.90;77.90;;;;;;5005526;29;20062;-80
2020/12/17 03:05:05;;;;;;;12.82;11.93;;;1.00;77.70;;;;;;4991002;29;20455;-80
2020/12/17 03:07:37;;;;;;;13.27;12.27;;;1.00;77.50;;;;;;4992160;29;20050;-80
2020/12/17 03:10:12;;;;;;;12.77;11.88;;;1.00;77.40;;;;;;4989687;29;20050;-80
2020/12/17 03:12:44;;;;;;;13.35;12.45;;;0.90;77.70;;;;;;4989883;29;20058;-80
2020/12/17 03:15:16;;;;;;;12.90;12.00;;;0.80;77.80;;;;;;4993790;29;20402;-80
2020/12/17 03:17:48;;;;;;;13.05;12.15;;;0.70;78.10;;;;;;4989308;29;20081;-80
2020/12/17 03:20:20;;;;;;;12.48;11.57;;;0.70;78.30;;;;;;4991190;29;20049;-80
2020/12/17 03:22:51;;;;;;;12.70;11.70;;;0.70;80.20;;;;;;4995190;29;20102;-81
2020/12/17 03:25:23;;;;;;;12.35;11.45;;;0.80;79.90;;;;;;4994865;29;20103;-80
2020/12/17 03:27:54;;;;;;;12.98;12.00;;;0.80;78.80;;;;;;4992610;29;20058;-80
2020/12/17 03:30:26;;;;;;;13.05;12.13;;;0.80;78.30;;;;;;4991943;29;20078;-80
2020/12/17 03:32:58;;;;;;;12.80;11.80;;;0.80;77.80;;;;;;4991411;29;20099;-80
2020/12/17 03:35:30;;;;;;;12.20;11.30;;;0.80;77.50;;;;;;4991397;29;20046;-80
2020/12/17 03:38:01;;;;;;;12.57;11.65;;;0.80;77.30;;;;;;4991478;29;20054;-80
2020/12/17 03:40:33;;;;;;;12.25;11.35;;;0.80;77.50;;;;;;5007015;29;20053;-80
2020/12/17 03:43:04;;;;;;;12.88;11.88;;;0.80;77.70;;;;;;4995796;29;20121;-80
2020/12/17 03:45:36;;;;;;;12.60;11.70;;;0.80;77.30;;;;;;4994763;29;20078;-80
2020/12/17 03:48:07;;;;;;;13.15;12.25;;;0.80;76.70;;;;;;4994944;29;20126;-80
2020/12/17 03:50:39;;;;;;;13.05;12.15;;;0.70;76.90;;;;;;4992392;29;20058;-80
2020/12/17 03:53:10;;;;;;;13.10;12.10;;;0.70;76.80;;;;;;4994778;29;20050;-80
2020/12/17 03:55:41;;;;;;;12.73;11.73;;;0.70;76.70;;;;;;4993733;29;20548;-81
2020/12/17 03:58:13;;;;;;;12.80;11.90;;;0.70;76.90;;;;;;5008599;29;20049;-81
2020/12/17 04:00:45;;;;;;;13.20;12.30;;;0.70;78.60;;;;;;4996054;29;20130;-81
2020/12/17 04:03:17;;;;;;;12.75;11.85;;;0.70;77.90;;;;;;4994238;29;20050;-80
2020/12/17 04:05:48;;;;;;;13.15;12.10;;;0.70;77.80;;;;;;4994969;29;20134;-81
2020/12/17 04:08:20;;;;;;;13.70;12.70;;;0.70;78.00;;;;;;5004035;29;20062;-81
2020/12/17 04:10:54;;;;;;;13.27;12.20;;;0.70;77.60;;;;;;5002996;29;20122;-80
2020/12/17 04:13:40;;;;;;;13.00;12.10;;;0.70;77.70;;;;;;4991808;29;20052;-80
2020/12/17 04:16:11;;;;;;;13.80;12.80;;;0.70;78.30;;;;;;4990468;29;20115;-80
2020/12/17 04:18:43;;;;;;;13.00;12.10;;;0.70;78.60;;;;;;4990020;29;20133;-79
2020/12/17 04:21:14;;;;;;;12.50;11.60;;;0.70;77.50;;;;;;4992875;29;20103;-80
2020/12/17 04:23:47;;;;;;;12.80;11.90;;;0.60;77.50;;;;;;5005655;29;20134;-80
2020/12/17 04:26:19;;;;;;;12.68;11.68;;;0.60;78.40;;;;;;4991008;29;20068;-80
2020/12/17 04:28:50;;;;;;;12.60;11.70;;;0.60;78.50;;;;;;4991471;29;20054;-80
2020/12/17 04:31:22;;;;;;;12.45;11.55;;;0.60;78.60;;;;;;4993070;29;20537;-80
2020/12/17 04:33:53;;;;;;;12.80;11.90;;;0.60;78.60;;;;;;5008570;29;20467;-80
2020/12/17 04:36:25;;;;;;;13.35;12.25;;;0.60;78.80;;;;;;4991240;29;20046;-80
2020/12/17 04:38:56;;;;;;;13.02;12.13;;;0.60;78.70;;;;;;4991247;29;20118;-80
2020/12/17 04:41:31;;;;;;;12.80;11.80;;;0.70;79.10;;;;;;4991679;29;20069;-80
2020/12/17 04:44:03;;;;;;;13.40;12.45;;;0.60;79.70;;;;;;4994479;29;20042;-79
2020/12/17 04:46:35;;;;;;;12.60;11.70;;;0.60;79.20;;;;;;4994931;29;20050;-80
2020/12/17 04:49:10;;;;;;;12.70;11.80;;;0.60;79.00;;;;;;4994674;29;20050;-80
2020/12/17 04:51:41;;;;;;;13.18;12.18;;;0.60;78.90;;;;;;4992583;29;20054;-81
2020/12/17 04:54:14;;;;;;;14.07;12.95;;;0.60;80.40;;;;;;4993102;29;20095;-80
2020/12/17 04:56:56;;;;;;;13.50;12.50;;;0.60;79.40;;;;;;4988280;29;20049;-79
2020/12/17 04:59:41;;;;;;;13.32;12.40;;;0.60;78.30;;;;;;5000967;29;20134;-79
2020/12/17 05:02:14;;;;;;;12.98;12.07;;;0.60;78.30;;;;;;5006775;29;20137;-80
2020/12/17 05:04:48;;;;;;;13.40;12.40;;;0.60;78.10;;;;;;4991946;29;20046;-80
2020/12/17 05:07:24;;;;;;;13.23;12.23;;;0.60;77.70;;;;;;4989673;29;20078;-80
2020/12/17 05:09:55;;;;;;;12.93;12.02;;;0.50;77.70;;;;;;4992440;29;20054;-80
2020/12/17 05:12:27;;;;;;;12.73;11.82;;;0.40;77.40;;;;;;4987685;29;20061;-80
2020/12/17 05:14:58;;;;;;;12.90;11.90;;;0.50;77.50;;;;;;4990966;29;20051;-80
2020/12/17 05:17:31;;;;;;;12.70;11.70;;;0.50;77.40;;;;;;4989595;29;20085;-81
2020/12/17 05:20:05;;;;;;;12.40;11.50;;;0.50;77.40;;;;;;4990118;29;20041;-80
2020/12/17 05:22:36;;;;;;;12.18;11.27;;;0.50;76.70;;;;;;4993425;29;20061;-80
2020/12/17 05:25:08;;;;;;;12.30;11.40;;;0.50;77.00;;;;;;4989140;29;20067;-80
2020/12/17 05:27:43;;;;;;;12.25;11.35;;;0.50;77.20;;;;;;4990757;29;20110;-80
2020/12/17 05:30:14;;;;;;;12.32;11.43;;;0.50;77.80;;;;;;4995871;29;20038;-80
2020/12/17 05:32:46;;;;;;;12.25;11.35;;;0.50;76.90;;;;;;4990199;29;20069;-81
2020/12/17 05:35:18;;;;;;;12.35;11.45;;;0.50;77.10;;;;;;4997712;29;20099;-80
2020/12/17 05:37:49;;;;;;;12.20;11.30;;;0.50;76.90;;;;;;4992655;29;20137;-81
2020/12/17 05:40:23;;;;;;;11.68;10.85;;;0.50;76.80;;;;;;4997818;29;20046;-82
2020/12/17 05:42:56;;;;;;;12.23;11.32;;;0.50;76.70;;;;;;5011311;29;20053;-81
2020/12/17 05:45:29;;;;;;;12.45;11.55;;;0.50;76.70;;;;;;5001206;29;20409;-81
2020/12/17 05:48:14;;;;;;;12.00;11.07;;;0.50;76.40;;;;;;4996945;29;20058;-81
2020/12/17 05:50:52;;;;;;;11.80;10.90;;;0.50;76.60;;;;;;4985202;29;20510;-78
2020/12/17 05:53:42;;;;;;;12.18;11.25;;;0.40;76.70;;;;;;4998997;29;20075;-81
2020/12/17 05:56:14;;;;;;;11.48;10.57;;;0.40;76.60;;;;;;4993251;29;20038;-81
2020/12/17 05:58:45;;;;;;;11.73;10.90;;;0.40;76.80;;;;;;4999714;29;20046;-81
2020/12/17 06:01:17;;;;;;;11.80;10.90;;;0.40;76.70;;;;;;5008484;29;20046;-81
2020/12/17 06:03:49;;;;;;;11.88;10.98;;;0.40;76.60;;;;;;4995943;29;20513;-79
2020/12/17 06:06:21;;;;;;;11.98;11.07;;;0.40;77.10;;;;;;4996604;29;20134;-81
2020/12/17 06:08:53;;;;;;;12.10;11.20;;;0.40;77.10;;;;;;4996364;29;20466;-80
2020/12/17 06:11:29;;;;;;;12.35;11.35;;;0.40;77.40;;;;;;4999522;29;20053;-81
2020/12/17 06:14:02;;;;;;;12.05;11.18;;;0.30;77.60;;;;;;4998064;29;20142;-80
2020/12/17 06:16:33;;;;;;;12.70;11.68;;;0.30;78.00;;;;;;5006063;29;20281;-79
2020/12/17 06:19:05;;;;;;;12.20;11.30;;;0.30;78.40;;;;;;4989896;29;20047;-81
2020/12/17 06:21:39;;;;;;;12.05;11.15;;;0.30;78.70;;;;;;4989593;29;20054;-81
2020/12/17 06:24:12;;;;;;;12.10;11.20;;;0.20;79.00;;;;;;4985932;29;20053;-82
2020/12/17 06:26:51;;;;;;;12.63;11.73;;;0.20;78.80;;;;;;4996730;29;20058;-82
2020/12/17 06:29:23;;;;;;;13.27;12.27;;;0.20;78.10;;;;;;4991148;29;20045;-81
2020/12/17 06:31:57;;;;;;;12.52;11.43;;;0.20;77.80;;;;;;5006295;29;20057;-80
2020/12/17 06:34:37;;;;;;;12.20;11.30;;;0.10;77.30;;;;;;5012147;29;20061;-80
2020/12/17 06:37:14;;;;;;;12.27;11.38;;;0.10;77.70;;;;;;4994086;29;20117;-82
2020/12/17 06:39:49;;;;;;;12.50;11.60;;;0.10;77.30;;;;;;4996147;29;20038;-81
2020/12/17 06:42:47;;;;;;;12.10;11.20;;;0.10;77.20;;;;;;4990949;29;20053;-81
2020/12/17 06:45:25;;;;;;;11.93;11.02;;;0.00;77.60;;;;;;4992480;29;20050;-80
2020/12/17 06:47:57;;;;;;;11.77;10.88;;;0.00;78.20;;;;;;4995666;29;20071;-80
2020/12/17 06:50:30;;;;;;;12.35;11.45;;;0.10;78.60;;;;;;4995624;29;20053;-80
2020/12/17 06:53:12;;;;;;;11.93;11.02;;;0.10;79.20;;;;;;4993358;29;20038;-81
2020/12/17 06:55:45;;;;;;;12.68;11.70;;;0.10;79.00;;;;;;4979111;29;20046;-80
2020/12/17 06:58:24;;;;;;;12.20;11.30;;;0.10;78.40;;;;;;4995639;29;20053;-81
2020/12/17 07:00:55;;;;;;;11.90;11.00;;;0.10;77.80;;;;;;4992692;29;20974;-80
2020/12/17 07:03:47;;;;;;;12.35;11.38;;;0.10;77.50;;;;;;4997629;29;20054;-82
2020/12/17 07:06:24;;;;;;;12.98;11.98;;;0.10;77.60;;;;;;4992640;29;20054;-80
2020/12/17 07:08:58;;;;;;;12.70;11.75;;;0.10;77.70;;;;;;4994188;29;20449;-81
2020/12/17 07:11:32;;;;;;;11.70;10.68;;;0.00;78.20;;;;;;4995041;29;20062;-80
2020/12/17 07:14:05;;;;;;;11.70;10.80;;;0.10;78.70;;;;;;5003151;29;20050;-80
2020/12/17 07:16:37;;;;;;;11.13;10.32;;;0.10;79.40;;;;;;4994933;29;20054;-83
2020/12/17 07:19:16;;;;;;;11.45;10.55;;;0.10;78.70;;;;;;4992783;29;20462;-81
2020/12/17 07:21:52;;;;;;;12.65;11.65;;;0.10;78.60;;;;;;4992159;29;20042;-82
2020/12/17 07:24:29;;;;;;;12.85;11.85;;;0.10;77.70;;;;;;4992117;29;20037;-80
2020/12/17 07:27:07;;;;;;;12.77;11.77;;;0.10;77.70;;;;;;5004471;29;20529;-80
2020/12/17 07:29:52;;;;;;;12.80;11.80;;;0.10;77.30;;;;;;4992303;29;20081;-81
2020/12/17 07:32:29;;;;;;;12.45;11.43;;;-0.20;78.10;;;;;;4993443;29;20046;-82
2020/12/17 07:35:06;;;;;;;12.57;11.57;;;-0.20;78.40;;;;;;4990034;29;20050;-81
2020/12/17 07:37:58;;;;;;;12.63;11.55;;;-0.20;78.80;;;;;;4994177;29;20066;-82
2020/12/17 07:40:33;;;;;;;12.75;11.75;;;-0.20;79.40;;;;;;4984021;29;20092;-82
2020/12/17 07:43:07;;;;;;;13.40;12.30;;;-0.20;79.80;;;;;;4994629;29;20072;-82
2020/12/17 07:45:49;;;;;;;12.38;11.38;;;-0.10;80.20;;;;;;4991501;29;20087;-81
2020/12/17 07:48:41;;;;;;;12.20;11.20;;;-0.10;80.40;;;;;;4992793;29;20053;-81
2020/12/17 07:51:15;;;;;;;12.70;11.60;;;0.00;80.00;;;;;;4995664;29;20111;-81
2020/12/17 07:53:51;;;;;;;12.48;11.48;;;0.10;79.50;;;;;;4995111;29;20119;-81
2020/12/17 07:56:22;;;;;;;11.43;10.52;;;0.10;78.40;;;;;;4990765;29;20050;-81
2020/12/17 07:58:54;;;;;;;11.50;10.60;;;0.20;77.90;;;;;;4994057;29;20061;-81
2020/12/17 08:01:25;;;;;;;12.32;11.32;;;0.20;78.80;;;;;;5007580;29;20718;-81
2020/12/17 08:03:57;;;;;;;11.90;10.90;;;0.20;77.60;;;;;;4991826;29;20546;-82
2020/12/17 08:06:29;;;;;;;12.40;11.40;;;0.20;77.40;;;;;;5007299;29;20501;-81
2020/12/17 08:09:03;;;;;;;11.98;11.07;;;0.20;77.70;;;;;;5005449;29;20110;-81
2020/12/17 08:11:56;;;;;;;11.80;10.70;;;0.30;77.50;;;;;;5010173;29;20058;-82
2020/12/17 08:14:29;;;;;;;12.25;11.25;;;0.30;78.30;;;;;;5006068;29;20050;-81
2020/12/17 08:17:07;;;;;;;13.65;12.45;;;0.30;77.60;;;;;;4991128;29;20390;-81
2020/12/17 08:19:39;;;;;;;12.00;11.00;;;0.30;77.10;;;;;;4994416;29;20045;-81
2020/12/17 08:22:11;;;;;;;11.88;10.98;;;0.30;78.80;;;;;;4994850;29;20122;-81
2020/12/17 08:24:43;;;;;;;12.00;10.90;;;0.30;80.20;;;;;;4995937;29;20513;-82
2020/12/17 08:27:15;;;;;;;13.30;12.10;;;0.30;79.00;;;;;;4994683;29;20061;-82
2020/12/17 08:29:47;;;;;;;13.35;12.25;;;0.20;78.60;;;;;;5008264;29;20146;-81
2020/12/17 08:32:21;;;;;;;13.25;12.15;;;0.30;78.60;;;;;;4991882;29;20141;-81
2020/12/17 08:34:54;;;;;;;13.30;12.20;;;0.30;78.60;;;;;;4998915;29;20099;-80
2020/12/17 08:37:26;;;;;;;13.25;12.15;;;0.30;78.60;;;;;;4994553;29;20041;-82
2020/12/17 08:40:00;;;;;;;13.13;12.02;;;0.40;78.40;;;;;;4997309;29;20129;-82
2020/12/17 08:42:34;;;;;;;13.40;12.23;;;0.50;78.60;;;;;;4992893;29;20057;-82
2020/12/17 08:45:08;;;;;;;12.15;11.00;;;0.50;79.10;;;;;;4997589;29;20558;-81
2020/12/17 08:47:45;;;;;;;11.48;10.57;;;0.60;78.80;;;;;;4992885;29;20550;-82
2020/12/17 08:50:19;;;;;;;12.30;11.30;;;0.70;80.10;;;;;;4995940;29;20082;-81
2020/12/17 08:52:50;;;;;;;11.70;10.80;;;0.70;80.40;;;;;;4994960;29;20286;-82
2020/12/17 08:55:24;;;;;;;11.30;10.50;;;0.80;80.10;;;;;;4990243;29;20058;-81
2020/12/17 08:58:05;;;;;;;10.60;9.80;;;0.80;81.40;;;;;;4997499;29;20057;-82
2020/12/17 09:00:36;;;;;;;11.65;10.75;;;1.00;81.60;;;;;;4997858;29;20057;-82
2020/12/17 09:03:08;;;;;;;13.68;12.57;;;1.10;80.90;;;;;;4964849;29;20064;-82
2020/12/17 09:05:40;;;;;;;14.48;13.18;;;1.20;80.10;;;;;;4990630;29;20099;-82
2020/12/17 09:08:11;;;;;;;14.88;13.65;;;1.30;78.90;;;;;;4994408;29;20106;-82
2020/12/17 09:10:43;;;;;;;13.43;12.25;;;1.40;78.40;;;;;;4991037;29;20077;-80
2020/12/17 09:13:17;;;;;;;13.95;12.75;;;1.40;78.60;;;;;;4997580;29;20058;-81
2020/12/17 09:15:59;;;;;;;13.40;12.20;;;1.50;78.70;;;;;;4993890;29;20603;-81
2020/12/17 09:18:31;;;;;;;13.88;12.55;;;1.50;78.60;;;;;;4998170;29;20050;-82
2020/12/17 09:21:13;;;;;;;13.30;12.10;;;1.60;79.00;;;;;;4992682;29;20052;-81
2020/12/17 09:23:56;;;;;;;12.40;11.40;;;1.70;79.00;;;;;;4995639;29;20086;-81
2020/12/17 09:26:28;;;;;;;12.07;11.18;;;1.90;78.80;;;;;;5002516;29;20046;-80
2020/12/17 09:29:02;;;;;;;15.63;14.18;;;2.10;79.10;;;;;;4997913;29;20061;-80
2020/12/17 09:31:35;;;;;;;14.65;13.32;;;2.30;78.70;;;;;;5003865;29;20050;-82
2020/12/17 09:34:11;;;;;;;14.75;13.35;;;2.50;78.50;;;;;;4999201;29;20517;-82
2020/12/17 09:36:44;;;;;;;13.98;12.88;;;2.50;78.50;;;;;;5002167;29;20145;-82
2020/12/17 09:39:17;;;;;;;13.45;12.25;;;2.60;78.30;;;;;;4999243;29;20050;-82
2020/12/17 09:41:56;;;;;;;13.20;12.00;;;2.80;78.50;;;;;;4996237;29;20183;-82
2020/12/17 09:44:34;;;;;;;12.70;11.70;;;2.90;77.50;;;;;;4996406;29;20051;-81
2020/12/17 09:47:05;;;;;;;12.57;11.57;;;2.90;77.40;;;;;;4993960;29;20069;-81
2020/12/17 09:49:38;;;;;;;12.77;11.75;;;3.00;77.60;;;;;;4997076;29;20066;-82
2020/12/17 09:52:11;;;;;;;12.93;11.93;;;3.00;77.80;;;;;;4996455;29;20687;-82
2020/12/17 09:54:43;;;;;;;12.80;11.60;;;3.00;77.00;;;;;;4997606;29;20086;-82
2020/12/17 09:57:15;;;;;;;12.60;11.40;;;3.10;77.20;;;;;;4996376;29;20050;-81
2020/12/17 09:59:47;;;;;;;11.98;11.07;;;3.10;77.50;;;;;;4997156;29;20046;-82
2020/12/17 10:02:18;;;;;;;12.93;11.82;;;3.10;77.50;;;;;;4995130;29;20098;-81
2020/12/17 10:04:50;;;;;;;11.63;10.70;;;3.20;76.90;;;;;;4985192;29;20661;-82
2020/12/17 10:07:21;;;;;;;12.07;11.07;;;3.10;77.90;;;;;;4993051;29;20054;-81
2020/12/17 10:09:53;;;;;;;12.20;11.15;;;3.20;78.20;;;;;;4996227;29;20110;-82
2020/12/17 10:12:31;;;;;;;11.98;11.07;;;3.20;78.30;;;;;;5007860;29;20085;-82
2020/12/17 10:15:03;;;;;;;11.75;10.75;;;3.30;78.30;;;;;;4991206;29;20057;-82
2020/12/17 10:17:35;;;;;;;11.43;10.48;;;3.30;78.30;;;;;;4997620;29;20046;-82
2020/12/17 10:20:09;;;;;;;11.93;10.95;;;3.30;78.50;;;;;;4996164;29;20046;-82
2020/12/17 10:22:50;;;;;;;11.45;10.55;;;3.40;78.50;;;;;;5000907;29;20423;-82
2020/12/17 10:25:23;;;;;;;11.32;10.43;;;3.40;78.30;;;;;;4996341;29;20508;-81
2020/12/17 10:27:55;;;;;;;11.93;10.93;;;3.40;77.80;;;;;;5002272;29;20046;-81
2020/12/17 10:30:28;;;;;;;11.80;10.90;;;3.50;77.20;;;;;;4998244;29;20115;-82
2020/12/17 10:32:59;;;;;;;11.10;10.30;;;3.50;77.10;;;;;;4996453;29;20034;-82
2020/12/17 10:35:31;;;;;;;11.45;10.65;;;3.50;77.80;;;;;;4996994;29;20053;-82
2020/12/17 10:38:02;;;;;;;11.60;10.70;;;3.50;78.00;;;;;;4997670;29;20045;-82
2020/12/17 10:40:34;;;;;;;12.73;11.77;;;3.60;77.20;;;;;;4995405;29;20144;-83
2020/12/17 10:43:05;;;;;;;12.52;11.52;;;3.60;77.60;;;;;;4995677;29;20081;-82
2020/12/17 10:45:37;;;;;;;12.60;11.60;;;3.70;78.00;;;;;;4993809;29;20061;-83
2020/12/17 10:48:08;;;;;;;12.48;11.50;;;3.70;78.00;;;;;;4995357;29;20401;-82
2020/12/17 10:50:40;;;;;;;11.80;10.93;;;3.80;78.50;;;;;;4997402;29;20516;-83
2020/12/17 10:53:11;;;;;;;11.25;10.35;;;3.80;78.30;;;;;;4994239;29;20054;-82
2020/12/17 10:55:43;;;;;;;11.57;10.68;;;3.90;78.50;;;;;;5009286;29;20085;-82
2020/12/17 10:58:15;;;;;;;11.55;10.75;;;3.90;78.40;;;;;;5011205;29;20050;-82
2020/12/17 11:00:48;;;;;;;12.50;11.57;;;4.00;78.40;;;;;;4993924;29;20069;-83
2020/12/17 11:03:19;;;;;;;12.95;11.95;;;4.00;78.50;;;;;;4997705;29;20061;-82
2020/12/17 11:05:51;;;;;;;12.07;11.18;;;4.10;78.70;;;;;;4994072;29;20144;-82
2020/12/17 11:08:26;;;;;;;12.40;11.50;;;4.10;78.80;;;;;;4988612;29;20137;-82
2020/12/17 11:10:58;;;;;;;11.80;10.95;;;4.20;78.20;;;;;;4992313;29;20042;-82
2020/12/17 11:13:29;;;;;;;12.05;11.10;;;4.30;78.20;;;;;;5012708;29;20544;-82
2020/12/17 11:16:01;;;;;;;12.38;11.38;;;4.30;76.70;;;;;;4993279;29;20054;-83
2020/12/17 11:18:32;;;;;;;12.25;11.35;;;4.40;77.70;;;;;;5009023;29;20054;-83
2020/12/17 11:21:04;;;;;;;12.40;11.40;;;4.50;77.60;;;;;;5003309;29;20130;-83
2020/12/17 11:23:36;;;;;;;12.68;11.77;;;4.60;77.70;;;;;;5009690;29;20513;-83
2020/12/17 11:26:07;;;;;;;12.35;11.45;;;4.70;77.70;;;;;;4992027;29;20046;-83
2020/12/17 11:28:39;;;;;;;13.20;12.20;;;4.80;76.40;;;;;;5008953;29;20062;-83
2020/12/17 11:31:11;;;;;;;13.98;12.77;;;4.80;76.70;;;;;;4990891;29;20054;-83
2020/12/17 11:33:42;;;;;;;13.60;12.60;;;4.90;76.40;;;;;;4995861;29;20054;-82
2020/12/17 11:36:14;;;;;;;13.70;12.70;;;5.00;75.40;;;;;;4988029;29;20053;-80
2020/12/17 11:38:46;;;;;;;12.80;11.90;;;5.20;76.40;;;;;;4996411;29;20083;-81
2020/12/17 11:41:17;;;;;;;15.70;14.30;;;5.30;75.90;;;;;;4996831;29;20054;-82
2020/12/17 11:43:49;;;;;;;15.00;13.80;;;5.50;76.10;;;;;;4995864;29;20057;-81
2020/12/17 11:46:21;;;;;;;13.80;12.80;;;5.60;76.30;;;;;;4994792;29;20074;-81
2020/12/17 11:48:52;;;;;;;14.35;13.15;;;5.70;75.40;;;;;;4989402;29;20053;-81
2020/12/17 11:51:24;;;;;;;14.10;13.00;;;5.90;75.30;;;;;;4993920;29;20074;-81
2020/12/17 11:53:55;;;;;;;14.07;13.07;;;5.90;73.60;;;;;;4982442;29;20054;-81
2020/12/17 11:56:27;;;;;;;13.75;12.68;;;6.10;74.80;;;;;;4996399;29;20065;-79
2020/12/17 11:58:58;;;;;;;14.40;13.20;;;6.20;74.40;;;;;;4991205;29;20047;-80
2020/12/17 12:01:30;;;;;;;13.95;12.90;;;6.20;72.90;;;;;;5008855;29;20053;-81
2020/12/17 12:04:02;;;;;;;13.13;12.13;;;6.30;74.20;;;;;;5007118;29;20102;-80
2020/12/17 12:06:33;;;;;;;13.93;12.82;;;6.30;74.10;;;;;;4992124;29;20174;-80
2020/12/17 12:09:07;;;;;;;14.00;12.90;;;6.30;74.10;;;;;;4990418;29;20246;-80
2020/12/17 12:11:41;;;;;;;13.48;12.48;;;6.30;74.20;;;;;;4995953;29;20329;-79
2020/12/17 12:14:13;;;;;;;14.10;13.00;;;6.30;73.30;;;;;;4994118;29;20050;-80
2020/12/17 12:16:45;;;;;;;13.63;12.60;;;6.30;74.40;;;;;;4993379;29;20705;-80
2020/12/17 12:19:16;;;;;;;14.27;13.18;;;6.40;74.20;;;;;;4994602;29;20054;-81
2020/12/17 12:21:52;;;;;;;14.30;13.27;;;6.40;74.60;;;;;;4994515;29;20050;-80
2020/12/17 12:24:23;;;;;;;13.82;12.82;;;6.40;74.90;;;;;;4992686;29;20082;-80
2020/12/17 12:26:55;;;;;;;14.18;13.07;;;6.40;75.50;;;;;;4992580;29;20115;-80
2020/12/17 12:29:27;;;;;;;13.98;12.88;;;6.40;75.90;;;;;;4995585;29;20045;-82
2020/12/17 12:31:58;;;;;;;14.65;13.45;;;6.40;76.40;;;;;;4993005;29;20054;-82
2020/12/17 12:34:30;;;;;;;14.70;13.60;;;6.40;76.40;;;;;;4978650;29;20056;-80
2020/12/17 12:37:01;;;;;;;14.98;13.80;;;6.40;76.30;;;;;;4995202;29;20731;-81
2020/12/17 12:39:33;;;;;;;14.88;13.77;;;6.40;75.60;;;;;;5008918;29;20560;-81
2020/12/17 12:42:06;;;;;;;15.02;13.90;;;6.40;76.50;;;;;;4993860;29;20050;-81
2020/12/17 12:44:37;;;;;;;14.18;13.18;;;6.40;77.30;;;;;;4993836;29;20050;-80
2020/12/17 12:47:09;;;;;;;14.48;13.38;;;6.40;76.30;;;;;;4990957;29;20065;-79
2020/12/17 12:49:40;;;;;;;14.45;13.35;;;6.50;76.40;;;;;;5006908;29;20074;-80
2020/12/17 12:52:12;;;;;;;15.60;14.35;;;6.50;76.60;;;;;;4993930;29;20065;-80
2020/12/17 12:54:44;;;;;;;15.10;13.90;;;6.50;74.50;;;;;;4994702;29;20054;-81
2020/12/17 12:57:15;;;;;;;15.05;13.95;;;6.50;75.70;;;;;;5003494;29;20119;-79
2020/12/17 12:59:47;;;;;;;15.48;14.18;;;6.50;76.50;;;;;;4994030;29;20073;-80
2020/12/17 13:02:18;;;;;;;15.23;14.02;;;6.50;76.30;;;;;;4994796;29;20231;-80
2020/12/17 13:04:49;;;;;;;15.32;14.13;;;6.50;76.40;;;;;;4997071;29;20042;-80
2020/12/17 13:07:21;;;;;;;14.45;13.35;;;6.50;76.80;;;;;;4996322;29;20054;-80